createdAt,value
2022-10-29T00:00:57.385Z,15.19
2022-10-29T00:01:57.449Z,15.18
2022-10-29T00:02:57.416Z,15.07
2022-10-29T00:03:57.341Z,15.05
2022-10-29T00:04:57.333Z,15.01
2022-10-29T00:05:57.314Z,15.01
2022-10-29T00:06:57.331Z,14.97
2022-10-29T00:07:57.673Z,14.90
2022-10-29T00:08:57.291Z,14.90
2022-10-29T00:09:57.269Z,15.11
2022-10-29T00:10:57.263Z,15.19
2022-10-29T00:11:57.255Z,15.19
2022-10-29T00:12:57.236Z,15.20
2022-10-29T00:13:57.225Z,15.22
2022-10-29T00:14:57.215Z,15.20
2022-10-29T00:15:57.203Z,15.25
2022-10-29T00:16:57.314Z,15.27
2022-10-29T00:17:57.588Z,15.15
2022-10-29T00:18:57.167Z,15.15
2022-10-29T00:19:57.271Z,15.16
2022-10-29T00:20:57.152Z,15.07
2022-10-29T00:21:57.138Z,15.11
2022-10-29T00:22:57.590Z,15.07
2022-10-29T00:23:57.113Z,15.07
2022-10-29T00:24:57.103Z,15.05
2022-10-29T00:25:57.092Z,15.01
2022-10-29T00:26:57.080Z,15.01
2022-10-29T00:27:57.071Z,15.01
2022-10-29T00:28:57.060Z,14.98
2022-10-29T00:29:57.046Z,15.04
2022-10-29T00:30:57.039Z,15.00
2022-10-29T00:31:57.122Z,15.03
2022-10-29T00:32:57.192Z,15.05
2022-10-29T00:33:57.000Z,15.04
2022-10-29T00:34:56.992Z,15.05
2022-10-29T00:35:56.984Z,15.04
2022-10-29T00:36:56.970Z,15.07
2022-10-29T00:37:57.387Z,15.07
2022-10-29T00:38:56.985Z,15.11
2022-10-29T00:39:56.939Z,15.15
2022-10-29T00:40:56.924Z,15.18
2022-10-29T00:41:56.911Z,15.23
2022-10-29T00:42:56.902Z,15.30
2022-10-29T00:43:56.887Z,15.34
2022-10-29T00:44:56.882Z,15.35
2022-10-29T00:45:56.866Z,15.46
2022-10-29T00:46:56.857Z,15.46
2022-10-29T00:47:57.208Z,15.48
2022-10-29T00:48:56.836Z,15.46
2022-10-29T00:49:56.823Z,15.52
2022-10-29T00:50:56.814Z,15.48
2022-10-29T00:51:56.801Z,15.46
2022-10-29T00:52:56.793Z,15.46
2022-10-29T00:53:56.779Z,15.40
2022-10-29T00:54:56.793Z,15.40
2022-10-29T00:55:56.758Z,15.35
2022-10-29T00:56:56.748Z,15.33
2022-10-29T00:57:57.081Z,15.35
2022-10-29T00:58:56.728Z,15.27
2022-10-29T00:59:56.714Z,15.30
2022-10-29T01:00:56.706Z,15.16
2022-10-29T01:01:56.808Z,15.22
2022-10-29T01:02:57.144Z,15.28
2022-10-29T01:03:56.669Z,15.25
2022-10-29T01:04:56.657Z,15.27
2022-10-29T01:05:56.642Z,15.15
2022-10-29T01:06:56.632Z,15.13
2022-10-29T01:07:56.624Z,15.07
2022-10-29T01:08:56.616Z,15.03
2022-10-29T01:09:56.595Z,15.01
2022-10-29T01:10:56.618Z,14.98
2022-10-29T01:11:56.576Z,15.03
2022-10-29T01:12:56.970Z,14.95
2022-10-29T01:13:56.557Z,14.91
2022-10-29T01:14:56.554Z,14.86
2022-10-29T01:15:56.533Z,14.87
2022-10-29T01:16:56.538Z,14.79
2022-10-29T01:17:56.812Z,14.72
2022-10-29T01:18:56.592Z,14.78
2022-10-29T01:19:56.487Z,14.93
2022-10-29T01:20:56.477Z,14.93
2022-10-29T01:21:56.464Z,14.94
2022-10-29T01:22:56.462Z,14.93
2022-10-29T01:23:56.442Z,14.94
2022-10-29T01:24:56.434Z,15.00
2022-10-29T01:25:56.420Z,15.04
2022-10-29T01:26:56.432Z,15.09
2022-10-29T01:27:56.899Z,15.03
2022-10-29T01:28:56.389Z,15.01
2022-10-29T01:29:56.378Z,15.05
2022-10-29T01:30:56.366Z,15.04
2022-10-29T01:31:56.355Z,15.03
2022-10-29T01:32:56.781Z,15.01
2022-10-29T01:33:56.331Z,14.97
2022-10-29T01:34:56.328Z,14.94
2022-10-29T01:35:56.309Z,14.91
2022-10-29T01:36:56.304Z,14.93
2022-10-29T01:37:56.284Z,14.90
2022-10-29T01:38:56.280Z,14.95
2022-10-29T01:39:56.267Z,14.94
2022-10-29T01:40:56.266Z,14.95
2022-10-29T01:41:56.253Z,14.98
2022-10-29T01:42:56.637Z,14.95
2022-10-29T01:43:56.226Z,14.90
2022-10-29T01:44:56.220Z,14.93
2022-10-29T01:45:56.206Z,14.85
2022-10-29T01:46:56.193Z,14.82
2022-10-29T01:47:56.456Z,14.72
2022-10-29T01:48:56.168Z,14.75
2022-10-29T01:49:56.156Z,14.87
2022-10-29T01:50:56.149Z,14.83
2022-10-29T01:51:56.132Z,14.79
2022-10-29T01:52:56.124Z,14.66
2022-10-29T01:53:56.108Z,14.69
2022-10-29T01:54:56.104Z,14.67
2022-10-29T01:55:56.086Z,14.75
2022-10-29T01:56:56.078Z,14.72
2022-10-29T01:57:56.362Z,14.67
2022-10-29T01:58:56.074Z,14.56
2022-10-29T01:59:56.404Z,14.53
2022-10-29T02:00:56.085Z,14.57
2022-10-29T02:01:56.083Z,14.52
2022-10-29T02:02:56.403Z,14.46
2022-10-29T02:03:55.999Z,14.45
2022-10-29T02:04:55.987Z,14.42
2022-10-29T02:05:55.971Z,14.45
2022-10-29T02:06:55.963Z,14.42
2022-10-29T02:07:55.949Z,14.38
2022-10-29T02:08:55.944Z,14.36
2022-10-29T02:09:55.928Z,14.27
2022-10-29T02:10:55.919Z,14.17
2022-10-29T02:11:55.908Z,14.13
2022-10-29T02:12:56.383Z,14.08
2022-10-29T02:13:55.900Z,14.12
2022-10-29T02:14:55.914Z,14.09
2022-10-29T02:15:55.924Z,14.06
2022-10-29T02:16:55.930Z,14.02
2022-10-29T02:17:56.320Z,13.94
2022-10-29T02:18:55.970Z,13.93
2022-10-29T02:19:55.961Z,13.84
2022-10-29T02:20:55.804Z,13.81
2022-10-29T02:21:55.794Z,13.86
2022-10-29T02:22:55.781Z,13.80
2022-10-29T02:23:55.768Z,13.86
2022-10-29T02:24:55.762Z,13.88
2022-10-29T02:25:55.821Z,13.94
2022-10-29T02:26:55.736Z,13.90
2022-10-29T02:27:56.131Z,13.86
2022-10-29T02:28:55.717Z,13.80
2022-10-29T02:29:55.703Z,13.80
2022-10-29T02:30:55.719Z,13.79
2022-10-29T02:31:55.682Z,13.80
2022-10-29T02:32:55.918Z,13.75
2022-10-29T02:33:55.661Z,13.72
2022-10-29T02:34:55.649Z,13.68
2022-10-29T02:35:55.636Z,13.75
2022-10-29T02:36:55.627Z,13.75
2022-10-29T02:37:55.616Z,13.80
2022-10-29T02:38:55.613Z,13.76
2022-10-29T02:39:55.594Z,13.75
2022-10-29T02:40:55.584Z,13.69
2022-10-29T02:41:55.576Z,13.66
2022-10-29T02:42:55.905Z,13.65
2022-10-29T02:43:55.550Z,13.65
2022-10-29T02:44:55.539Z,13.61
2022-10-29T02:45:55.529Z,13.65
2022-10-29T02:46:55.544Z,13.55
2022-10-29T02:47:55.887Z,13.57
2022-10-29T02:48:55.497Z,13.48
2022-10-29T02:49:55.485Z,13.31
2022-10-29T02:50:55.475Z,13.27
2022-10-29T02:51:55.461Z,13.24
2022-10-29T02:52:55.453Z,13.17
2022-10-29T02:53:55.439Z,13.16
2022-10-29T02:54:55.432Z,13.16
2022-10-29T02:55:55.418Z,13.13
2022-10-29T02:56:55.409Z,13.13
2022-10-29T02:57:55.643Z,12.99
2022-10-29T02:58:55.392Z,13.06
2022-10-29T02:59:55.374Z,12.98
2022-10-29T03:00:55.368Z,13.01
2022-10-29T03:01:55.480Z,13.06
2022-10-29T03:02:55.835Z,13.03
2022-10-29T03:03:55.331Z,13.04
2022-10-29T03:04:55.319Z,13.06
2022-10-29T03:05:55.311Z,12.98
2022-10-29T03:06:55.301Z,12.94
2022-10-29T03:07:55.286Z,12.81
2022-10-29T03:08:55.277Z,12.79
2022-10-29T03:09:55.263Z,12.76
2022-10-29T03:10:55.252Z,12.77
2022-10-29T03:11:55.240Z,12.76
2022-10-29T03:12:55.617Z,12.80
2022-10-29T03:13:55.218Z,12.80
2022-10-29T03:14:55.209Z,12.76
2022-10-29T03:15:55.195Z,12.74
2022-10-29T03:16:55.185Z,12.67
2022-10-29T03:17:55.585Z,12.66
2022-10-29T03:18:55.194Z,12.58
2022-10-29T03:19:55.153Z,12.61
2022-10-29T03:20:55.139Z,12.61
2022-10-29T03:21:55.138Z,12.55
2022-10-29T03:22:55.117Z,12.54
2022-10-29T03:23:55.116Z,12.54
2022-10-29T03:24:55.098Z,12.54
2022-10-29T03:25:56.097Z,12.51
2022-10-29T03:26:55.074Z,12.40
2022-10-29T03:27:55.436Z,12.38
2022-10-29T03:28:55.053Z,12.34
2022-10-29T03:29:55.039Z,12.25
2022-10-29T03:30:55.055Z,12.29
2022-10-29T03:31:55.016Z,12.26
2022-10-29T03:32:55.434Z,12.16
2022-10-29T03:33:54.997Z,12.12
2022-10-29T03:34:57.567Z,12.07
2022-10-29T03:35:55.054Z,12.04
2022-10-29T03:36:54.959Z,11.94
2022-10-29T03:37:54.946Z,11.88
2022-10-29T03:38:54.951Z,11.88
2022-10-29T03:39:54.929Z,11.84
2022-10-29T03:40:54.914Z,11.79
2022-10-29T03:41:54.900Z,11.78
2022-10-29T03:42:55.210Z,11.72
2022-10-29T03:44:54.870Z,11.98
2022-10-29T03:45:54.856Z,12.08
2022-10-29T03:46:54.853Z,12.13
2022-10-29T03:47:55.198Z,12.12
2022-10-29T03:48:54.825Z,12.15
2022-10-29T03:49:54.812Z,12.13
2022-10-29T03:50:54.825Z,12.08
2022-10-29T03:51:54.787Z,12.03
2022-10-29T03:52:54.779Z,12.04
2022-10-29T03:53:54.767Z,11.96
2022-10-29T03:54:54.757Z,11.84
2022-10-29T03:55:54.744Z,11.72
2022-10-29T03:56:54.734Z,11.72
2022-10-29T03:57:55.042Z,11.66
2022-10-29T03:58:54.718Z,11.63
2022-10-29T03:59:54.708Z,11.67
2022-10-29T04:00:54.689Z,11.67
2022-10-29T04:01:54.843Z,11.72
2022-10-29T04:02:55.180Z,11.78
2022-10-29T04:03:54.656Z,11.75
2022-10-29T04:04:54.644Z,11.74
2022-10-29T04:05:54.632Z,11.72
2022-10-29T04:06:54.649Z,11.75
2022-10-29T04:07:54.613Z,11.74
2022-10-29T04:08:54.597Z,11.78
2022-10-29T04:09:54.588Z,11.75
2022-10-29T04:10:54.577Z,11.70
2022-10-29T04:11:54.566Z,11.66
2022-10-29T04:12:54.979Z,11.53
2022-10-29T04:13:54.543Z,11.48
2022-10-29T04:14:54.533Z,11.44
2022-10-29T04:15:54.522Z,11.42
2022-10-29T04:16:54.507Z,11.42
2022-10-29T04:17:54.989Z,11.35
2022-10-29T04:18:54.487Z,11.28
2022-10-29T04:19:54.476Z,11.28
2022-10-29T04:26:42.058Z,11.28
2022-10-29T04:28:54.372Z,11.23
2022-10-29T04:29:54.367Z,11.26
2022-10-29T04:30:54.356Z,11.23
2022-10-29T04:31:54.341Z,11.26
2022-10-29T04:32:54.688Z,11.24
2022-10-29T04:33:54.315Z,11.21
2022-10-29T04:34:54.306Z,11.20
2022-10-29T04:35:54.295Z,11.19
2022-10-29T04:36:54.282Z,11.19
2022-10-29T04:37:54.271Z,11.19
2022-10-29T04:38:54.282Z,11.11
2022-10-29T04:39:54.248Z,11.11
2022-10-29T04:40:54.237Z,11.09
2022-10-29T04:41:54.227Z,11.11
2022-10-29T04:42:54.516Z,11.08
2022-10-29T04:43:54.203Z,11.06
2022-10-29T04:44:54.190Z,11.09
2022-10-29T04:45:54.190Z,11.09
2022-10-29T04:46:54.173Z,11.05
2022-10-29T04:47:54.621Z,11.02
2022-10-29T04:48:54.198Z,11.02
2022-10-29T04:49:54.135Z,10.95
2022-10-29T04:50:54.124Z,10.98
2022-10-29T04:51:54.112Z,10.90
2022-10-29T04:52:54.100Z,10.84
2022-10-29T04:53:54.092Z,10.87
2022-10-29T04:54:54.103Z,10.98
2022-10-29T04:55:54.068Z,10.94
2022-10-29T04:56:54.054Z,10.90
2022-10-29T04:57:54.425Z,10.86
2022-10-29T04:58:54.182Z,10.87
2022-10-29T04:59:54.024Z,10.91
2022-10-29T05:00:54.116Z,11.02
2022-10-29T05:01:53.999Z,11.03
2022-10-29T05:02:54.278Z,11.03
2022-10-29T05:03:57.147Z,10.94
2022-10-29T05:04:53.964Z,10.91
2022-10-29T05:05:53.955Z,10.86
2022-10-29T05:07:21.437Z,10.80
2022-10-29T05:08:21.424Z,10.78
2022-10-29T05:09:21.461Z,10.80
2022-10-29T05:10:21.427Z,10.76
2022-10-29T05:11:21.395Z,10.73
2022-10-29T05:12:21.377Z,10.76
2022-10-29T05:13:21.369Z,10.80
2022-10-29T05:14:21.358Z,10.87
2022-10-29T05:15:21.346Z,10.84
2022-10-29T05:16:21.332Z,10.80
2022-10-29T05:17:21.323Z,10.87
2022-10-29T05:18:21.334Z,11.01
2022-10-29T05:19:21.299Z,11.03
2022-10-29T05:20:21.289Z,11.02
2022-10-29T05:21:21.279Z,10.99
2022-10-29T05:22:21.266Z,10.93
2022-10-29T05:23:21.259Z,10.88
2022-10-29T05:24:21.245Z,10.86
2022-10-29T05:25:21.234Z,10.87
2022-10-29T05:26:21.245Z,10.84
2022-10-29T05:27:21.211Z,10.87
2022-10-29T05:28:21.218Z,10.86
2022-10-29T05:29:21.190Z,10.84
2022-10-29T05:30:21.176Z,10.86
2022-10-29T05:31:21.168Z,10.91
2022-10-29T05:32:21.153Z,10.93
2022-10-29T05:33:21.147Z,10.88
2022-10-29T05:34:21.133Z,10.86
2022-10-29T05:35:21.126Z,10.84
2022-10-29T05:36:21.110Z,10.81
2022-10-29T05:37:21.100Z,10.76
2022-10-29T05:38:21.087Z,10.76
2022-10-29T05:39:21.077Z,10.80
2022-10-29T05:40:21.067Z,10.86
2022-10-29T05:41:21.059Z,10.88
2022-10-29T05:42:21.071Z,10.87
2022-10-29T05:43:21.040Z,10.84
2022-10-29T05:44:21.021Z,10.80
2022-10-29T05:45:21.015Z,10.76
2022-10-29T05:46:20.998Z,10.65
2022-10-29T05:47:20.991Z,10.57
2022-10-29T05:48:20.975Z,10.55
2022-10-29T05:49:20.968Z,10.46
2022-10-29T05:50:20.955Z,10.39
2022-10-29T05:51:20.945Z,10.32
2022-10-29T05:52:20.939Z,10.29
2022-10-29T05:53:20.922Z,10.28
2022-10-29T05:54:20.909Z,10.28
2022-10-29T05:55:20.900Z,10.31
2022-10-29T05:56:20.888Z,10.28
2022-10-29T05:57:20.877Z,10.24
2022-10-29T05:58:20.886Z,10.22
2022-10-29T05:59:20.860Z,10.24
2022-10-29T06:00:20.842Z,10.25
2022-10-29T06:01:20.929Z,10.25
2022-10-29T06:02:20.987Z,10.28
2022-10-29T06:03:20.813Z,10.32
2022-10-29T06:04:20.798Z,10.35
2022-10-29T06:05:20.793Z,10.35
2022-10-29T06:06:20.845Z,10.29
2022-10-29T06:07:20.776Z,10.32
2022-10-29T06:08:20.756Z,10.35
2022-10-29T06:09:20.744Z,10.34
2022-10-29T06:10:20.727Z,10.28
2022-10-29T06:11:21.069Z,10.24
2022-10-29T06:12:20.707Z,10.26
2022-10-29T06:13:20.702Z,10.25
2022-10-29T06:14:20.710Z,10.29
2022-10-29T06:15:20.675Z,10.32
2022-10-29T06:16:20.663Z,10.35
2022-10-29T06:17:20.652Z,10.31
2022-10-29T06:18:20.642Z,10.34
2022-10-29T06:19:20.633Z,10.36
2022-10-29T06:20:20.627Z,10.42
2022-10-29T06:21:20.611Z,10.47
2022-10-29T06:22:20.599Z,10.47
2022-10-29T06:23:20.587Z,10.49
2022-10-29T06:24:20.574Z,10.51
2022-10-29T06:25:20.562Z,10.49
2022-10-29T06:26:20.549Z,10.46
2022-10-29T06:27:20.540Z,10.42
2022-10-29T06:28:20.528Z,10.38
2022-10-29T06:29:20.529Z,10.39
2022-10-29T06:30:20.530Z,10.36
2022-10-29T06:31:20.498Z,10.38
2022-10-29T06:32:20.482Z,10.42
2022-10-29T06:33:20.472Z,10.42
2022-10-29T06:34:20.460Z,10.43
2022-10-29T06:35:20.529Z,10.43
2022-10-29T06:36:20.440Z,10.42
2022-10-29T06:37:20.430Z,10.43
2022-10-29T06:38:20.416Z,10.49
2022-10-29T06:39:20.415Z,10.55
2022-10-29T06:40:20.395Z,10.51
2022-10-29T06:41:20.385Z,10.52
2022-10-29T06:42:20.372Z,10.51
2022-10-29T06:43:20.359Z,10.51
2022-10-29T06:44:20.348Z,10.52
2022-10-29T06:45:20.339Z,10.54
2022-10-29T06:46:20.349Z,10.60
2022-10-29T06:47:20.319Z,10.60
2022-10-29T06:48:22.308Z,10.62
2022-10-29T06:49:20.292Z,10.65
2022-10-29T06:50:20.284Z,10.69
2022-10-29T06:51:20.309Z,10.75
2022-10-29T06:52:20.258Z,10.75
2022-10-29T06:53:20.248Z,10.84
2022-10-29T06:54:20.235Z,10.88
2022-10-29T06:55:20.226Z,10.91
2022-10-29T06:56:20.214Z,10.99
2022-10-29T06:57:20.204Z,10.99
2022-10-29T06:58:20.192Z,11.01
2022-10-29T06:59:20.184Z,11.08
2022-10-29T07:00:20.173Z,11.12
2022-10-29T07:01:20.198Z,11.13
2022-10-29T07:02:20.173Z,11.19
2022-10-29T07:03:20.139Z,11.20
2022-10-29T07:04:20.127Z,11.26
2022-10-29T07:05:20.130Z,11.28
2022-10-29T07:06:20.104Z,11.30
2022-10-29T07:07:20.180Z,11.35
2022-10-29T07:08:20.083Z,11.35
2022-10-29T07:09:20.070Z,11.41
2022-10-29T07:10:20.063Z,11.42
2022-10-29T07:11:20.048Z,11.42
2022-10-29T07:12:20.046Z,11.45
2022-10-29T07:13:20.031Z,11.48
2022-10-29T07:14:20.016Z,11.51
2022-10-29T07:15:23.003Z,11.53
2022-10-29T07:16:20.258Z,11.54
2022-10-29T07:17:19.987Z,11.53
2022-10-29T07:18:19.995Z,11.57
2022-10-29T07:19:19.961Z,11.60
2022-10-29T07:20:19.951Z,11.59
2022-10-29T07:21:19.943Z,11.62
2022-10-29T07:22:19.930Z,11.62
2022-10-29T07:23:20.061Z,11.66
2022-10-29T07:24:19.907Z,11.66
2022-10-29T07:25:19.894Z,11.69
2022-10-29T07:26:19.884Z,11.77
2022-10-29T07:27:19.902Z,11.75
2022-10-29T07:28:19.863Z,11.77
2022-10-29T07:29:19.848Z,11.77
2022-10-29T07:30:19.837Z,11.78
2022-10-29T07:31:19.826Z,11.75
2022-10-29T07:32:19.819Z,11.82
2022-10-29T07:33:19.809Z,11.82
2022-10-29T07:34:19.823Z,11.87
2022-10-29T07:35:19.786Z,11.87
2022-10-29T07:36:19.780Z,11.96
2022-10-29T07:37:19.760Z,12.00
2022-10-29T07:38:19.755Z,12.07
2022-10-29T07:39:19.810Z,12.12
2022-10-29T07:40:19.727Z,12.18
2022-10-29T07:41:19.716Z,12.22
2022-10-29T07:42:19.706Z,12.29
2022-10-29T07:43:19.703Z,12.33
2022-10-29T07:44:19.687Z,12.38
2022-10-29T07:45:19.705Z,12.43
2022-10-29T07:46:19.673Z,12.46
2022-10-29T07:47:19.650Z,12.49
2022-10-29T07:48:19.644Z,12.55
2022-10-29T07:49:19.628Z,12.61
2022-10-29T07:50:19.645Z,12.63
2022-10-29T07:51:19.606Z,12.66
2022-10-29T07:52:19.615Z,12.73
2022-10-29T07:53:19.588Z,12.85
2022-10-29T07:54:19.576Z,12.91
2022-10-29T07:55:19.613Z,13.03
2022-10-29T07:56:19.579Z,13.16
2022-10-29T07:57:19.554Z,13.31
2022-10-29T07:58:19.531Z,13.43
2022-10-29T07:59:19.529Z,13.47
2022-10-29T08:00:19.559Z,13.57
2022-10-29T08:01:19.628Z,13.55
2022-10-29T08:02:19.613Z,13.53
2022-10-29T08:03:19.476Z,13.53
2022-10-29T08:04:19.464Z,13.50
2022-10-29T08:05:19.451Z,13.43
2022-10-29T08:06:19.490Z,13.44
2022-10-29T08:07:19.612Z,13.44
2022-10-29T08:08:19.583Z,13.48
2022-10-29T08:09:19.520Z,13.47
2022-10-29T08:10:19.515Z,13.48
2022-10-29T08:11:19.488Z,13.50
2022-10-29T08:12:19.411Z,13.55
2022-10-29T08:13:19.388Z,13.63
2022-10-29T08:14:22.597Z,13.63
2022-10-29T08:15:19.347Z,13.66
2022-10-29T08:16:19.339Z,13.72
2022-10-29T08:17:19.325Z,13.71
2022-10-29T08:18:19.318Z,13.73
2022-10-29T08:19:19.299Z,13.75
2022-10-29T08:20:19.303Z,13.79
2022-10-29T08:21:19.278Z,13.81
2022-10-29T08:22:19.293Z,13.86
2022-10-29T08:23:19.273Z,13.84
2022-10-29T08:24:19.546Z,13.88
2022-10-29T08:25:19.239Z,13.76
2022-10-29T08:26:19.229Z,13.71
2022-10-29T08:27:19.212Z,13.71
2022-10-29T08:28:20.870Z,13.73
2022-10-29T08:29:19.192Z,13.76
2022-10-29T08:30:19.182Z,13.81
2022-10-29T08:31:19.370Z,13.80
2022-10-29T08:32:19.240Z,13.76
2022-10-29T08:33:19.147Z,13.81
2022-10-29T08:34:19.137Z,13.83
2022-10-29T08:35:19.126Z,13.84
2022-10-29T08:36:19.115Z,13.88
2022-10-29T08:37:19.106Z,13.90
2022-10-29T08:38:19.465Z,13.86
2022-10-29T08:39:19.083Z,13.75
2022-10-29T08:40:19.076Z,13.76
2022-10-29T08:41:19.063Z,13.83
2022-10-29T08:42:19.065Z,13.93
2022-10-29T08:43:19.046Z,13.88
2022-10-29T08:44:19.029Z,13.91
2022-10-29T08:45:19.015Z,13.96
2022-10-29T08:46:19.007Z,14.04
2022-10-29T08:47:18.994Z,14.04
2022-10-29T08:48:18.984Z,14.01
2022-10-29T08:49:18.970Z,14.04
2022-10-29T08:50:18.962Z,14.04
2022-10-29T08:51:18.952Z,13.98
2022-10-29T08:52:18.944Z,14.05
2022-10-29T08:53:23.273Z,14.05
2022-10-29T08:54:31.111Z,14.09
2022-10-29T08:55:19.934Z,14.19
2022-10-29T08:56:18.897Z,14.24
2022-10-29T08:57:18.887Z,14.26
2022-10-29T08:58:18.876Z,14.36
2022-10-29T08:59:18.863Z,14.49
2022-10-29T09:00:18.857Z,14.59
2022-10-29T09:01:18.915Z,14.80
2022-10-29T09:02:18.892Z,15.00
2022-10-29T09:03:18.844Z,15.09
2022-10-29T09:04:18.808Z,14.98
2022-10-29T09:05:18.805Z,14.98
2022-10-29T09:06:18.787Z,14.98
2022-10-29T09:07:18.775Z,14.98
2022-10-29T09:08:18.765Z,14.97
2022-10-29T09:09:18.751Z,14.93
2022-10-29T09:10:18.762Z,14.93
2022-10-29T09:11:18.730Z,14.91
2022-10-29T09:12:18.726Z,14.97
2022-10-29T09:13:18.706Z,14.94
2022-10-29T09:14:18.712Z,14.93
2022-10-29T09:15:18.689Z,14.90
2022-10-29T09:16:18.678Z,14.91
2022-10-29T09:17:18.664Z,14.85
2022-10-29T09:18:18.654Z,14.86
2022-10-29T09:19:18.639Z,14.78
2022-10-29T09:20:18.637Z,14.75
2022-10-29T09:21:18.620Z,14.83
2022-10-29T09:22:18.609Z,14.86
2022-10-29T09:23:18.607Z,14.86
2022-10-29T09:24:18.617Z,14.82
2022-10-29T09:25:18.578Z,14.91
2022-10-29T09:26:18.591Z,14.90
2022-10-29T09:27:18.558Z,14.91
2022-10-29T09:28:18.544Z,14.93
2022-10-29T09:29:18.534Z,14.94
2022-10-29T09:30:18.522Z,14.98
2022-10-29T09:31:18.510Z,14.91
2022-10-29T09:32:18.505Z,15.05
2022-10-29T09:33:18.490Z,15.35
2022-10-29T09:34:18.480Z,15.37
2022-10-29T09:35:18.480Z,15.46
2022-10-29T09:36:18.461Z,15.59
2022-10-29T09:37:18.443Z,15.60
2022-10-29T09:38:18.433Z,15.80
2022-10-29T09:39:21.932Z,16.03
2022-10-29T09:40:18.417Z,16.36
2022-10-29T09:41:18.398Z,16.50
2022-10-29T09:42:18.410Z,16.85
2022-10-29T09:43:18.378Z,17.00
2022-10-29T09:44:18.367Z,16.88
2022-10-29T09:45:18.450Z,16.85
2022-10-29T09:46:18.357Z,16.82
2022-10-29T09:47:18.338Z,16.72
2022-10-29T09:48:18.325Z,16.62
2022-10-29T09:49:18.312Z,16.65
2022-10-29T09:50:18.303Z,16.69
2022-10-29T09:51:18.290Z,16.82
2022-10-29T09:52:18.281Z,17.12
2022-10-29T09:53:18.272Z,17.22
2022-10-29T09:54:18.259Z,17.51
2022-10-29T09:55:18.273Z,18.05
2022-10-29T09:56:18.269Z,18.31
2022-10-29T09:57:18.228Z,18.50
2022-10-29T09:58:18.238Z,18.39
2022-10-29T09:59:18.200Z,18.02
2022-10-29T10:00:18.190Z,18.09
2022-10-29T10:01:18.265Z,18.10
2022-10-29T10:02:18.241Z,18.14
2022-10-29T10:03:18.240Z,17.94
2022-10-29T10:04:18.147Z,17.87
2022-10-29T10:05:18.137Z,17.80
2022-10-29T10:06:18.295Z,17.79
2022-10-29T10:07:18.137Z,18.02
2022-10-29T10:08:18.104Z,18.17
2022-10-29T10:09:18.119Z,18.46
2022-10-29T10:10:18.166Z,18.49
2022-10-29T10:11:18.073Z,18.36
2022-10-29T10:12:18.061Z,18.59
2022-10-29T10:13:18.981Z,18.46
2022-10-29T10:14:18.075Z,18.34
2022-10-29T10:15:18.023Z,18.65
2022-10-29T10:16:18.060Z,19.07
2022-10-29T10:17:18.216Z,19.58
2022-10-29T10:18:18.007Z,19.67
2022-10-29T10:19:17.982Z,19.55
2022-10-29T10:20:18.019Z,19.49
2022-10-29T10:21:17.961Z,19.52
2022-10-29T10:22:17.955Z,19.31
2022-10-29T10:23:17.984Z,19.24
2022-10-29T10:24:17.929Z,19.10
2022-10-29T10:25:18.014Z,19.10
2022-10-29T10:26:17.941Z,19.20
2022-10-29T10:27:18.009Z,19.16
2022-10-29T10:28:18.099Z,19.05
2022-10-29T10:29:18.177Z,18.89
2022-10-29T10:30:17.929Z,18.79
2022-10-29T10:31:17.886Z,18.64
2022-10-29T10:32:17.843Z,18.56
2022-10-29T10:33:17.880Z,18.50
2022-10-29T10:34:17.822Z,18.41
2022-10-29T10:35:17.809Z,18.38
2022-10-29T10:36:17.800Z,18.44
2022-10-29T10:37:17.832Z,18.51
2022-10-29T10:38:18.058Z,18.59
2022-10-29T10:39:17.769Z,18.69
2022-10-29T10:40:17.757Z,18.78
2022-10-29T10:41:17.743Z,18.91
2022-10-29T10:42:17.735Z,19.05
2022-10-29T10:43:17.723Z,19.07
2022-10-29T10:44:17.716Z,19.09
2022-10-29T10:45:17.706Z,19.13
2022-10-29T10:46:17.717Z,19.10
2022-10-29T10:47:17.768Z,19.16
2022-10-29T10:48:18.091Z,19.17
2022-10-29T10:49:17.984Z,19.05
2022-10-29T10:50:17.672Z,18.94
2022-10-29T10:51:17.642Z,18.96
2022-10-29T10:52:17.625Z,18.96
2022-10-29T10:53:17.676Z,19.06
2022-10-29T10:54:17.799Z,19.01
2022-10-29T10:55:17.798Z,19.06
2022-10-29T10:56:17.723Z,19.13
2022-10-29T10:57:17.749Z,19.21
2022-10-29T10:58:17.649Z,19.15
2022-10-29T10:59:17.587Z,19.07
2022-10-29T11:00:17.582Z,19.12
2022-10-29T11:01:17.690Z,18.94
2022-10-29T11:02:17.714Z,19.01
2022-10-29T11:03:17.868Z,18.94
2022-10-29T11:04:17.504Z,18.93
2022-10-29T11:05:17.792Z,18.89
2022-10-29T11:06:17.482Z,18.76
2022-10-29T11:07:17.471Z,18.78
2022-10-29T11:08:17.488Z,18.79
2022-10-29T11:09:17.455Z,18.84
2022-10-29T11:10:17.444Z,18.87
2022-10-29T11:11:17.422Z,18.86
2022-10-29T11:12:17.413Z,18.82
2022-10-29T11:13:17.395Z,18.78
2022-10-29T11:14:17.408Z,18.76
2022-10-29T11:15:17.375Z,18.79
2022-10-29T11:16:17.368Z,18.83
2022-10-29T11:17:17.352Z,18.89
2022-10-29T11:19:17.331Z,19.06
2022-10-29T11:20:17.508Z,18.99
2022-10-29T11:21:17.310Z,19.02
2022-10-29T11:22:17.297Z,19.02
2022-10-29T11:23:17.288Z,19.10
2022-10-29T11:24:17.276Z,19.24
2022-10-29T11:25:17.363Z,19.27
2022-10-29T11:26:17.259Z,19.38
2022-10-29T11:27:17.246Z,19.39
2022-10-29T11:28:17.230Z,19.40
2022-10-29T11:29:17.224Z,19.39
2022-10-29T11:30:17.222Z,19.42
2022-10-29T11:31:17.217Z,19.42
2022-10-29T11:32:17.188Z,19.27
2022-10-29T11:33:17.221Z,19.25
2022-10-29T11:34:17.200Z,19.30
2022-10-29T11:35:17.463Z,19.40
2022-10-29T11:36:17.150Z,19.46
2022-10-29T11:37:17.139Z,19.45
2022-10-29T11:38:17.124Z,19.47
2022-10-29T11:39:17.119Z,19.38
2022-10-29T11:40:17.107Z,19.34
2022-10-29T11:41:17.097Z,19.39
2022-10-29T11:42:17.143Z,19.43
2022-10-29T11:43:17.073Z,19.46
2022-10-29T11:44:17.060Z,19.52
2022-10-29T11:45:17.055Z,19.57
2022-10-29T11:46:17.037Z,19.60
2022-10-29T11:47:17.075Z,19.55
2022-10-29T11:48:21.473Z,19.64
2022-10-29T11:49:17.012Z,19.67
2022-10-29T11:50:17.018Z,19.68
2022-10-29T11:51:16.991Z,19.62
2022-10-29T11:52:16.971Z,19.60
2022-10-29T11:53:16.967Z,19.49
2022-10-29T11:54:16.952Z,19.46
2022-10-29T11:55:16.982Z,19.47
2022-10-29T11:56:16.933Z,19.46
2022-10-29T11:57:16.922Z,19.50
2022-10-29T11:58:16.910Z,19.53
2022-10-29T11:59:16.905Z,19.62
2022-10-29T12:00:16.888Z,19.64
2022-10-29T12:01:16.938Z,19.62
2022-10-29T12:02:16.872Z,19.71
2022-10-29T12:03:16.927Z,19.62
2022-10-29T12:04:19.589Z,19.67
2022-10-29T12:05:17.864Z,19.71
2022-10-29T12:06:16.894Z,19.75
2022-10-29T12:07:16.851Z,19.86
2022-10-29T12:08:16.818Z,19.94
2022-10-29T12:09:16.790Z,19.97
2022-10-29T12:10:16.784Z,20.02
2022-10-29T12:11:16.770Z,20.12
2022-10-29T12:12:16.759Z,20.23
2022-10-29T12:13:16.747Z,20.23
2022-10-29T12:14:16.850Z,20.19
2022-10-29T12:15:16.724Z,20.26
2022-10-29T12:16:16.713Z,20.19
2022-10-29T12:17:16.704Z,20.31
2022-10-29T12:18:16.810Z,20.33
2022-10-29T12:19:16.701Z,20.30
2022-10-29T12:20:16.670Z,20.30
2022-10-29T12:21:16.666Z,20.26
2022-10-29T12:22:16.674Z,20.16
2022-10-29T12:23:16.841Z,20.10
2022-10-29T12:24:16.631Z,20.02
2022-10-29T12:25:16.621Z,20.02
2022-10-29T12:26:16.652Z,20.04
2022-10-29T12:27:16.594Z,20.05
2022-10-29T12:28:16.583Z,20.16
2022-10-29T12:29:16.583Z,20.25
2022-10-29T12:30:16.718Z,20.42
2022-10-29T12:31:16.595Z,20.58
2022-10-29T12:32:16.542Z,20.66
2022-10-29T12:33:16.541Z,20.64
2022-10-29T12:34:16.517Z,20.51
2022-10-29T12:35:16.514Z,20.64
2022-10-29T12:36:16.500Z,20.66
2022-10-29T12:37:17.182Z,20.61
2022-10-29T12:38:16.498Z,20.53
2022-10-29T12:39:16.464Z,20.61
2022-10-29T12:40:16.454Z,20.71
2022-10-29T12:41:16.461Z,20.72
2022-10-29T12:42:16.487Z,20.73
2022-10-29T12:43:16.423Z,20.75
2022-10-29T12:44:16.412Z,20.78
2022-10-29T12:45:16.402Z,20.81
2022-10-29T12:46:20.829Z,20.88
2022-10-29T12:47:16.379Z,20.82
2022-10-29T12:48:16.369Z,20.85
2022-10-29T12:49:16.354Z,20.87
2022-10-29T12:50:16.355Z,20.87
2022-10-29T12:51:16.961Z,20.87
2022-10-29T12:52:16.332Z,20.82
2022-10-29T12:53:16.401Z,20.81
2022-10-29T12:54:16.389Z,20.81
2022-10-29T12:55:16.294Z,20.76
2022-10-29T12:56:16.646Z,20.81
2022-10-29T12:57:16.271Z,20.83
2022-10-29T12:58:16.262Z,20.83
2022-10-29T12:59:16.250Z,20.87
2022-10-29T13:00:16.242Z,20.87
2022-10-29T13:01:16.392Z,20.93
2022-10-29T13:02:16.329Z,20.91